createdAt,value
2022-07-31T00:02:51.093Z,5.10
2022-07-31T00:06:52.565Z,6.15
2022-07-31T00:10:54.068Z,5.45
2022-07-31T00:14:55.536Z,5.95
2022-07-31T00:18:56.989Z,6.82
2022-07-31T00:22:58.692Z,4.93
2022-07-31T00:27:00.364Z,4.35
2022-07-31T00:31:01.953Z,6.80
2022-07-31T00:35:04.061Z,4.32
2022-07-31T00:39:06.068Z,5.38
2022-07-31T00:43:07.550Z,4.72
2022-07-31T00:47:09.225Z,4.32
2022-07-31T00:51:10.675Z,6.70
2022-07-31T00:55:12.092Z,6.20
2022-07-31T00:59:13.497Z,6.53
2022-07-31T01:03:15.472Z,6.15
2022-07-31T01:07:16.997Z,5.43
2022-07-31T01:11:34.096Z,5.28
2022-07-31T01:15:37.591Z,7.95
2022-07-31T01:19:42.851Z,4.50
2022-07-31T01:24:15.689Z,4.90
2022-07-31T01:28:48.115Z,9.05
2022-07-31T01:32:50.633Z,6.55
2022-07-31T01:36:58.434Z,4.43
2022-07-31T01:41:03.028Z,5.38
2022-07-31T01:45:06.343Z,6.47
2022-07-31T01:49:08.902Z,6.47
2022-07-31T01:53:13.430Z,6.90
2022-07-31T01:57:18.537Z,6.10
2022-07-31T02:01:25.353Z,5.32
2022-07-31T02:05:29.249Z,7.03
2022-07-31T02:09:32.447Z,5.55
2022-07-31T02:13:34.014Z,5.07
2022-07-31T02:17:36.212Z,4.05
2022-07-31T02:21:37.696Z,3.97
2022-07-31T02:25:39.873Z,5.47
2022-07-31T02:29:42.126Z,4.85
2022-07-31T02:33:46.472Z,7.50
2022-07-31T02:37:51.054Z,6.05
2022-07-31T02:41:52.954Z,5.50
2022-07-31T02:45:56.055Z,5.63
2022-07-31T02:49:58.145Z,7.22
2022-07-31T02:53:59.591Z,6.05
2022-07-31T02:58:02.841Z,6.13
2022-07-31T03:02:05.791Z,5.57
2022-07-31T03:06:07.531Z,4.85
2022-07-31T03:10:13.095Z,5.05
2022-07-31T03:14:15.408Z,5.78
2022-07-31T03:18:21.751Z,6.50
2022-07-31T03:22:23.424Z,6.15
2022-07-31T03:26:25.567Z,7.03
2022-07-31T03:30:27.030Z,5.15
2022-07-31T03:34:28.442Z,6.82
2022-07-31T03:38:38.987Z,5.78
2022-07-31T03:42:44.361Z,5.70
2022-07-31T03:46:46.156Z,5.15
2022-07-31T03:50:47.665Z,6.85
2022-07-31T03:54:49.712Z,5.43
2022-07-31T03:58:52.715Z,5.05
2022-07-31T04:02:56.049Z,7.30
2022-07-31T04:06:57.584Z,6.90
2022-07-31T04:10:59.069Z,6.78
2022-07-31T04:15:00.512Z,7.25
2022-07-31T04:19:01.941Z,8.35
2022-07-31T04:23:04.047Z,6.72
2022-07-31T04:27:12.748Z,6.93
2022-07-31T04:31:14.496Z,6.45
2022-07-31T04:35:15.953Z,9.35
2022-07-31T04:39:17.423Z,6.13
2022-07-31T04:43:19.596Z,10.32
2022-07-31T04:47:21.041Z,8.35
2022-07-31T04:51:24.222Z,6.68
2022-07-31T04:55:25.875Z,9.43
2022-07-31T04:59:59.027Z,6.47
2022-07-31T05:03:48.938Z,7.25
2022-07-31T05:07:50.406Z,6.75
2022-07-31T05:11:52.852Z,6.40
2022-07-31T05:15:54.315Z,5.72
2022-07-31T05:19:55.795Z,5.78
2022-07-31T05:23:58.409Z,6.75
2022-07-31T05:27:59.805Z,5.13
2022-07-31T05:32:01.799Z,4.63
2022-07-31T05:36:03.826Z,5.15
2022-07-31T05:40:06.034Z,4.43
2022-07-31T05:44:08.163Z,5.05
2022-07-31T05:48:09.605Z,4.78
2022-07-31T05:52:11.005Z,3.63
2022-07-31T05:56:12.501Z,5.65
2022-07-31T06:00:16.292Z,3.50
2022-07-31T06:04:19.059Z,5.63
2022-07-31T06:08:20.574Z,5.13
2022-07-31T06:12:22.075Z,5.57
2022-07-31T06:16:23.567Z,5.00
2022-07-31T06:20:25.468Z,5.63
2022-07-31T06:24:27.090Z,7.63
2022-07-31T06:28:41.446Z,4.40
2022-07-31T06:32:50.476Z,3.90
2022-07-31T06:36:51.948Z,9.23
2022-07-31T06:40:53.305Z,3.50
2022-07-31T06:44:54.996Z,5.90
2022-07-31T06:48:56.681Z,4.85
2022-07-31T06:52:58.140Z,3.97
2022-07-31T06:56:59.630Z,5.07
2022-07-31T07:01:01.060Z,4.55
2022-07-31T07:05:05.765Z,3.28
2022-07-31T07:09:08.173Z,4.45
2022-07-31T07:13:09.763Z,3.03
2022-07-31T07:17:11.239Z,5.15
2022-07-31T07:21:12.751Z,5.93
2022-07-31T07:25:15.303Z,3.75
2022-07-31T07:29:24.449Z,5.13
2022-07-31T07:33:40.903Z,3.92
2022-07-31T07:38:05.252Z,5.78
2022-07-31T07:42:09.865Z,3.90
2022-07-31T07:46:11.456Z,5.30
2022-07-31T07:50:12.969Z,3.50
2022-07-31T07:54:17.179Z,6.05
2022-07-31T07:58:18.699Z,3.10
2022-07-31T08:02:20.177Z,3.38
2022-07-31T08:06:23.322Z,5.13
2022-07-31T08:10:24.883Z,3.80
2022-07-31T08:14:26.694Z,4.35
2022-07-31T08:18:28.520Z,4.07
2022-07-31T08:22:30.154Z,6.15
2022-07-31T08:26:52.305Z,5.60
2022-07-31T08:30:54.076Z,4.47
2022-07-31T08:34:55.934Z,7.30
2022-07-31T08:38:57.421Z,7.50
2022-07-31T08:43:00.955Z,4.75
2022-07-31T08:47:07.035Z,4.93
2022-07-31T08:51:11.836Z,5.93
2022-07-31T08:55:55.478Z,4.03
2022-07-31T08:59:37.990Z,2.78
2022-07-31T09:03:39.671Z,3.75
2022-07-31T09:07:41.168Z,2.60
2022-07-31T09:11:50.102Z,3.80
2022-07-31T09:15:52.654Z,2.63
2022-07-31T09:19:55.140Z,3.58
2022-07-31T09:23:56.674Z,2.03
2022-07-31T09:28:06.205Z,4.43
2022-07-31T09:32:13.453Z,3.15
2022-07-31T09:40:21.109Z,4.97
2022-07-31T09:44:26.132Z,3.70
2022-07-31T09:48:28.944Z,3.78
2022-07-31T09:52:32.372Z,2.05
2022-07-31T09:56:34.900Z,2.95
2022-07-31T10:00:39.722Z,3.25
2022-07-31T10:04:42.608Z,3.70
2022-07-31T10:08:46.231Z,5.13
2022-07-31T10:12:51.993Z,3.22
2022-07-31T10:16:56.958Z,2.38
2022-07-31T10:20:59.267Z,7.05
2022-07-31T10:25:03.546Z,4.47
2022-07-31T10:29:05.004Z,5.25
2022-07-31T10:33:17.514Z,2.80
2022-07-31T10:37:45.867Z,3.72
2022-07-31T10:41:56.465Z,3.85
2022-07-31T10:45:58.556Z,3.65
2022-07-31T10:50:00.375Z,4.45
2022-07-31T10:54:07.848Z,2.08
2022-07-31T10:58:11.007Z,1.95
2022-07-31T11:02:12.666Z,4.05
2022-07-31T11:06:16.166Z,3.40
2022-07-31T11:10:20.914Z,3.67
2022-07-31T11:14:36.101Z,2.10
2022-07-31T11:18:37.737Z,6.10
2022-07-31T11:22:41.219Z,3.60
2022-07-31T11:26:55.267Z,6.93
2022-07-31T11:31:07.039Z,2.40
2022-07-31T11:35:09.063Z,3.15
2022-07-31T11:39:13.107Z,3.08
2022-07-31T11:43:26.222Z,2.28
2022-07-31T11:48:12.688Z,4.88
2022-07-31T11:52:31.123Z,2.50
2022-07-31T11:56:39.933Z,2.75
2022-07-31T12:00:51.639Z,5.35
2022-07-31T12:05:08.337Z,4.80
2022-07-31T12:10:00.925Z,2.70
2022-07-31T12:13:39.921Z,3.75
2022-07-31T12:17:41.710Z,3.47
2022-07-31T12:21:43.968Z,3.78
2022-07-31T12:25:46.399Z,3.95
2022-07-31T12:29:47.828Z,3.25
2022-07-31T12:33:49.493Z,3.83
2022-07-31T12:37:52.837Z,4.05
2022-07-31T12:41:54.342Z,2.42
2022-07-31T12:46:00.132Z,4.85
2022-07-31T12:50:01.907Z,3.78
2022-07-31T12:54:04.721Z,2.42
2022-07-31T12:58:06.327Z,4.82
2022-07-31T13:02:08.055Z,3.95
2022-07-31T13:06:09.501Z,3.60
2022-07-31T13:10:19.827Z,3.03
2022-07-31T13:14:25.708Z,2.55
2022-07-31T13:18:27.121Z,8.13
2022-07-31T13:22:28.593Z,5.25
2022-07-31T13:26:30.027Z,3.40
2022-07-31T13:30:54.673Z,1.67
2022-07-31T13:35:27.264Z,4.47
2022-07-31T13:39:18.729Z,3.08
2022-07-31T13:43:20.332Z,3.83
2022-07-31T13:47:21.803Z,4.45
2022-07-31T13:51:24.778Z,6.25
2022-07-31T13:55:30.575Z,2.78
2022-07-31T13:59:34.017Z,2.60
2022-07-31T14:03:35.503Z,4.88
2022-07-31T14:07:45.322Z,2.65
2022-07-31T14:11:54.831Z,2.00
2022-07-31T14:16:03.482Z,4.30
2022-07-31T14:20:13.336Z,3.38
2022-07-31T14:24:15.012Z,7.10
2022-07-31T14:28:27.600Z,2.65
2022-07-31T14:32:41.998Z,3.30
2022-07-31T14:36:43.637Z,1.85
2022-07-31T14:40:48.065Z,3.42
2022-07-31T14:44:57.616Z,3.45
2022-07-31T15:08:25.351Z,4.95
2022-07-31T15:12:49.788Z,2.90
2022-07-31T15:21:22.444Z,2.67
2022-07-31T15:29:25.565Z,4.32
2022-07-31T15:33:46.997Z,3.80
2022-07-31T15:37:49.623Z,3.90
2022-07-31T15:41:52.947Z,4.50
2022-07-31T15:45:54.383Z,3.72
2022-07-31T15:49:55.821Z,2.88
2022-07-31T15:53:57.237Z,4.38
2022-07-31T15:57:58.733Z,3.28
2022-07-31T16:02:00.250Z,5.80
2022-07-31T16:06:03.642Z,4.07
2022-07-31T16:10:15.808Z,6.35
2022-07-31T16:14:18.569Z,3.42
2022-07-31T16:18:20.180Z,3.45
2022-07-31T16:22:21.596Z,2.20
2022-07-31T16:26:23.036Z,5.53
2022-07-31T16:30:26.292Z,1.83
2022-07-31T16:34:27.750Z,4.60
2022-07-31T16:38:29.511Z,2.20
2022-07-31T16:42:30.953Z,3.20
2022-07-31T16:46:32.359Z,2.65
2022-07-31T16:50:33.870Z,6.25
2022-07-31T16:54:35.336Z,4.85
2022-07-31T16:58:36.807Z,4.03
2022-07-31T17:02:38.283Z,2.10
2022-07-31T17:06:39.800Z,3.08
2022-07-31T17:10:41.325Z,4.97
2022-07-31T17:14:43.883Z,2.72
2022-07-31T17:18:52.628Z,2.28
2022-07-31T17:22:56.009Z,2.88
2022-07-31T17:26:57.564Z,2.53
2022-07-31T17:30:59.031Z,5.20
2022-07-31T17:35:01.696Z,4.40
2022-07-31T17:39:04.154Z,2.75
2022-07-31T17:43:05.658Z,3.95
2022-07-31T17:47:08.257Z,2.58
2022-07-31T17:51:10.593Z,1.90
2022-07-31T17:55:12.200Z,2.67
2022-07-31T17:59:13.717Z,3.97
2022-07-31T18:03:15.186Z,3.75
2022-07-31T18:07:17.950Z,4.35
2022-07-31T18:11:19.880Z,4.30
2022-07-31T18:15:21.415Z,2.97
2022-07-31T18:19:35.941Z,3.58
2022-07-31T18:23:43.544Z,2.25
2022-07-31T18:27:48.656Z,5.38
2022-07-31T18:31:50.205Z,11.73
2022-07-31T18:35:51.632Z,3.63
2022-07-31T18:39:53.890Z,9.77
2022-07-31T18:43:55.858Z,13.73
2022-07-31T18:48:54.821Z,43.72
2022-07-31T18:52:57.349Z,52.97
2022-07-31T18:57:03.448Z,20.50
2022-07-31T19:01:05.619Z,16.90
2022-07-31T19:05:13.715Z,4.97
2022-07-31T19:09:24.998Z,3.40
2022-07-31T19:13:38.539Z,2.85
2022-07-31T19:17:44.428Z,2.42
2022-07-31T19:21:51.301Z,2.15
2022-07-31T19:26:03.095Z,3.63
2022-07-31T19:30:10.208Z,4.55
2022-07-31T19:34:13.781Z,6.18
2022-07-31T19:38:17.327Z,5.10
2022-07-31T19:47:25.847Z,2.40
2022-07-31T19:51:38.219Z,3.60
2022-07-31T19:55:46.641Z,3.80
2022-07-31T19:59:48.885Z,3.53
2022-07-31T20:14:14.972Z,3.20
2022-07-31T20:18:27.315Z,1.95
2022-07-31T20:22:29.673Z,2.50
2022-07-31T20:26:36.825Z,2.38
2022-07-31T20:30:38.284Z,4.53
2022-07-31T20:34:46.200Z,3.88
2022-07-31T20:38:48.142Z,2.97
2022-07-31T20:42:49.910Z,2.03
2022-07-31T20:47:03.032Z,5.85
2022-07-31T20:56:53.998Z,2.05
2022-07-31T21:01:43.846Z,2.45
2022-07-31T21:59:45.160Z,4.72
2022-07-31T22:03:57.966Z,2.40
2022-07-31T22:08:20.777Z,1.92
2022-07-31T22:12:45.722Z,3.03
2022-07-31T22:17:17.263Z,3.13
2022-07-31T22:21:31.457Z,4.78
2022-07-31T22:25:59.489Z,3.38
2022-07-31T22:30:38.552Z,4.97
2022-07-31T22:50:19.206Z,4.00
2022-07-31T22:54:23.102Z,2.60
2022-07-31T22:58:30.763Z,3.67
2022-07-31T23:02:58.157Z,2.45
2022-07-31T23:11:24.466Z,3.55
2022-07-31T23:15:42.685Z,2.67
2022-07-31T23:19:54.147Z,2.83
2022-07-31T23:24:03.925Z,4.03
2022-07-31T23:33:46.448Z,4.55
2022-07-31T23:43:54.412Z,4.25
2022-07-31T23:47:59.911Z,2.63
